Estació municipal de Susqueda - Veïnat del Coll (La Selva, )

Consulta les dades en temps real de l'estació municipal de Susqueda - Veïnat del Coll





Hora UTC 15:15
Temperatura 28.3 ºC
Humitat 41.6 %
Pressió 1024.5 hPa
Pluja 0.0 mm
Velocitat vent 6.3 km/h
Direcció vent E
Radiació solar 455.9 W/m²

Dades diàries 2026-09-06



Hora UTC (hivern +1h; estiu +2h)
Temperatura (ºC) Humitat (%) Pressió (hPa) Velocitat vent (km/h) Precipitació (mm) Radiació solar (W/m²)
Hora UTC Aire Humitat Pressió Vel. Dir. Vel. Max Dir. Intent. màx 5 min. Rad. Sol.
00:05 24.1 49.9 1025.3 7.1 SSW 7.1 SSW 0.0 0.1
00:10 24.1 49.7 1025.3 6.4 SW 13.1 SW 0.0 0.1
00:15 24.1 49.4 1025.3 6.9 SW 14.8 WSW 0.0 0.1
00:20 24.1 49.6 1025.3 6.1 SW 14.1 SSW 0.0 0.1
00:25 24.0 49.7 1025.3 5.7 SW 14.5 SW 0.0 0.1
00:30 24.1 49.7 1025.3 6.6 SW 13.1 SW 0.0 0.1
00:35 24.1 49.5 1025.2 5.8 SW 12.4 SSW 0.0 0.1
00:40 24.1 49.4 1025.2 5.7 SW 20.5 S 0.0 0.1
00:45 24.1 49.4 1025.1 6.3 SW 13.8 WSW 0.0 0.1
00:50 24.0 49.5 1025.1 6.5 SW 12.7 WSW 0.0 0.1
00:55 24.0 49.6 1025.1 5.6 SW 12.0 SW 0.0 0.1
01:00 23.9 49.7 1025.1 7.0 SW 17.6 SSW 0.0 0.1
01:05 24.0 49.3 1025.0 7.9 SW 14.1 SSW 0.0 0.1
01:10 24.0 49.4 1025.0 8.4 SW 20.1 SSW 0.0 0.1
01:15 24.0 49.5 1025.0 6.5 SW 15.2 S 0.0 0.1
01:20 24.1 49.3 1025.0 7.1 SW 17.3 SW 0.0 0.1
01:25 24.1 48.9 1024.9 8.5 SW 19.4 SW 0.0 0.1
01:30 24.0 49.2 1024.9 7.7 SW 19.1 SW 0.0 0.1
01:35 24.0 49.2 1024.9 7.8 SW 17.6 SSW 0.0 0.1
01:40 24.0 49.6 1024.9 7.7 SW 20.5 SSW 0.0 0.1
01:45 24.1 49.7 1025.0 7.8 SW 14.8 SSW 0.0 0.1
01:50 24.1 50.1 1025.0 7.8 SW 15.5 W 0.0 0.1
01:55 24.1 49.9 1024.9 6.8 SW 15.2 W 0.0 0.1
02:00 24.0 50.1 1024.9 6.0 SW 13.1 SW 0.0 0.1
02:05 24.0 50.3 1024.9 6.1 SW 14.1 SW 0.0 0.1
02:10 24.0 50.3 1024.9 5.4 SW 14.5 W 0.0 0.1
02:15 24.0 50.4 1024.9 6.3 SW 15.2 W 0.0 0.1
02:20 23.9 50.8 1024.9 5.3 SW 14.8 SSW 0.0 0.1
02:25 23.7 51.4 1024.8 5.2 SW 11.3 WSW 0.0 0.1
02:30 23.7 51.2 1024.8 5.9 SW 16.9 W 0.0 0.1
02:35 23.8 51.1 1024.8 6.2 WSW 13.1 W 0.0 0.1
02:40 23.8 51.0 1024.8 5.3 WSW 13.4 WSW 0.0 0.1
02:45 23.7 50.7 1024.8 6.5 SW 15.2 SW 0.0 0.1
02:50 23.8 50.2 1024.8 6.6 SW 14.8 SW 0.0 0.1
02:55 23.9 50.0 1024.7 5.8 SW 13.1 SSW 0.0 0.1
03:00 24.0 49.7 1024.7 6.4 SW 18.0 W 0.0 0.1
03:05 23.9 49.9 1024.7 6.7 SW 14.5 SSE 0.0 0.1
03:10 23.9 49.9 1024.7 6.6 SW 17.6 WSW 0.0 0.1
03:15 24.1 49.4 1024.7 6.3 SW 15.2 SSW 0.0 0.1
03:20 24.3 48.9 1024.7 6.5 SW 15.2 SW 0.0 0.1
03:25 24.3 48.7 1024.7 6.1 SW 16.9 SW 0.0 0.1
03:30 24.4 48.5 1024.7 6.5 SW 15.5 S 0.0 0.1
03:35 24.4 48.0 1024.6 5.9 SW 13.8 WSW 0.0 0.1
03:40 24.6 47.7 1024.6 5.5 SW 14.1 SSW 0.0 0.1
03:45 24.6 47.7 1024.6 4.7 SW 12.4 SW 0.0 0.1
03:50 24.6 47.7 1024.6 5.0 SW 17.6 SW 0.0 0.1
03:55 24.6 47.6 1024.5 5.0 SW 11.3 SSE 0.0 0.1
04:00 24.7 47.3 1024.5 5.1 SSW 12.7 S 0.0 0.1
04:05 24.7 47.3 1024.5 4.3 SW 12.0 WNW 0.0 0.1
04:10 24.6 47.5 1024.5 4.2 SW 14.5 SW 0.0 0.1
04:15 24.6 47.4 1024.4 5.1 SW 15.9 SSW 0.0 0.1
04:20 24.6 47.5 1024.4 6.2 SSW 14.5 SW 0.0 0.1
04:25 24.6 47.7 1024.4 5.8 SSW 14.5 SW 0.0 0.1
04:30 24.4 48.2 1024.4 4.5 SW 13.8 S 0.0 0.1
04:35 24.4 48.5 1024.4 4.6 SSW 13.8 SSW 0.0 0.1
04:40 24.3 48.8 1024.4 5.1 SW 14.5 SSW 0.0 0.1
04:45 24.3 48.5 1024.3 4.6 SW 11.3 SW 0.0 0.1
04:50 24.4 48.3 1024.3 4.7 SSW 11.3 SW 0.0 0.1
04:55 24.3 48.3 1024.3 3.6 SW 10.2 WNW 0.0 0.2
05:00 24.1 48.5 1024.3 2.9 SW 11.6 SW 0.0 0.2
05:05 24.2 48.0 1024.3 3.9 SW 10.6 W 0.0 0.5
05:10 24.1 48.5 1024.3 3.7 SSW 10.6 WSW 0.0 1.1
05:15 24.0 49.3 1024.4 4.2 SW 11.6 S 0.0 2.5
05:20 23.9 50.0 1024.4 4.0 SSW 9.2 W 0.0 4.2
05:25 23.8 50.3 1024.5 3.6 SSW 10.9 SSW 0.0 6.9
05:30 23.7 50.6 1024.5 4.3 SSW 8.8 SSW 0.0 11.1
05:35 23.7 50.6 1024.5 4.5 SSW 10.6 SW 0.0 16.8
05:40 23.8 50.3 1024.5 4.6 SSW 10.9 SW 0.0 24.1
05:45 23.8 50.6 1024.6 5.1 SSW 11.3 S 0.0 32.9
05:50 24.0 50.5 1024.6 4.6 SSW 12.0 SSW 0.0 43.0
05:55 24.1 50.4 1024.6 3.8 SSW 10.9 SSW 0.0 53.8
06:00 24.2 50.2 1024.6 4.6 SSW 12.0 SSW 0.0 65.6
06:05 24.4 50.0 1024.6 4.0 SSW 9.9 SSW 0.0 78.1
06:10 24.6 49.6 1024.6 5.0 SSW 11.3 SSW 0.0 91.2
06:15 24.7 49.2 1024.7 4.6 S 9.5 SSW 0.0 104.7
06:20 24.9 48.8 1024.7 3.7 S 7.4 SSW 0.0 118.0
06:25 25.1 47.6 1024.8 3.1 SSW 6.7 S 0.0 131.7
06:30 25.3 46.3 1024.8 3.6 SSW 7.8 S 0.0 145.6
06:35 25.5 45.8 1024.9 3.2 SSW 7.4 S 0.0 159.5
06:40 25.6 45.5 1024.9 3.9 SW 9.2 SSW 0.0 176.1
06:45 25.7 45.6 1024.9 4.1 SSW 9.5 SW 0.0 191.8
06:50 25.8 45.7 1024.9 4.3 SSW 12.4 WSW 0.0 207.6
06:55 25.9 45.8 1024.9 4.7 SSW 10.6 S 0.0 224.4
07:00 26.0 45.8 1024.9 4.4 SW 9.5 SW 0.0 241.4
07:05 26.2 45.5 1024.9 3.5 WSW 8.5 SSW 0.0 258.9
07:10 26.1 45.4 1024.9 3.5 SW 8.1 WSW 0.0 270.9
07:15 26.2 45.5 1025.0 2.0 SW 9.2 SSW 0.0 285.8
07:20 26.4 44.9 1025.0 2.0 WSW 6.0 W 0.0 307.1
07:25 26.7 44.5 1025.0 3.0 SW 8.8 S 0.0 325.2
07:30 26.8 43.6 1025.0 3.6 SW 10.6 SSW 0.0 342.2
07:35 26.9 43.0 1025.0 3.3 SW 8.8 SSW 0.0 359.2
07:40 27.0 42.2 1025.0 3.5 SW 9.5 SSW 0.0 375.1
07:45 26.9 41.6 1025.0 4.1 WSW 9.5 S 0.0 392.1
07:50 27.0 40.9 1025.0 4.2 SW 8.8 WSW 0.0 408.6
07:55 27.2 39.6 1025.0 2.9 W 7.8 W 0.0 424.0
08:00 27.3 39.3 1025.0 2.8 WSW 8.5 SE 0.0 435.5
08:05 27.6 37.4 1025.1 3.0 WSW 8.1 W 0.0 449.7
08:10 27.8 38.5 1025.1 1.5 NNE 6.0 WNW 0.0 464.0
08:15 28.1 35.3 1025.1 2.6 W 7.1 WSW 0.0 474.1
08:20 28.2 36.1 1025.1 2.5 N 6.4 N 0.0 490.3
08:25 28.2 36.4 1025.1 2.2 W 8.1 W 0.0 502.1
08:30 28.3 38.0 1025.1 1.5 N 5.3 NNW 0.0 515.1
08:35 28.6 36.4 1025.2 1.7 NW 6.0 WSW 0.0 527.1
08:40 28.5 37.1 1025.2 2.3 NW 8.1 NNW 0.0 541.2
08:45 28.7 37.0 1025.3 2.3 NW 6.7 NNW 0.0 554.8
08:50 28.7 36.3 1025.3 3.8 NW 8.8 NW 0.0 566.2
08:55 28.5 37.6 1025.4 2.6 N 8.1 NNW 0.0 578.1
09:00 28.3 39.4 1025.4 1.5 ENE 4.9 ENE 0.0 590.8
09:05 28.0 39.9 1025.4 1.3 E 4.9 S 0.0 602.8
09:10 28.1 39.7 1025.4 2.0 E 4.6 NE 0.0 613.6
09:15 28.1 39.5 1025.5 1.0 E 3.5 E 0.0 625.1
09:20 28.2 39.3 1025.5 1.7 ESE 6.0 SSE 0.0 635.4
09:25 28.2 39.5 1025.5 1.1 NE 3.9 E 0.0 647.1
09:30 28.4 38.7 1025.5 2.2 E 4.9 ESE 0.0 657.7
09:35 28.3 39.3 1025.5 2.8 NE 6.7 ESE 0.0 668.7
09:40 28.4 39.0 1025.5 1.9 E 6.0 ESE 0.0 675.0
09:45 28.3 39.3 1025.5 1.7 ESE 4.9 E 0.0 686.1
09:50 28.5 39.0 1025.5 3.0 ESE 6.4 ESE 0.0 696.3
09:55 28.4 38.9 1025.5 3.1 SE 8.8 E 0.0 703.7
10:00 28.3 39.2 1025.5 3.6 SE 7.8 ENE 0.0 712.7
10:05 28.3 38.9 1025.5 4.8 ESE 10.2 E 0.0 721.3
10:10 28.3 38.8 1025.5 3.8 ENE 8.8 E 0.0 729.0
10:15 28.3 38.9 1025.5 4.0 ENE 9.9 ENE 0.0 736.5
10:20 28.5 38.5 1025.5 2.4 ENE 7.1 E 0.0 742.4
10:25 29.0 37.6 1025.5 2.9 E 7.4 E 0.0 749.4
10:30 28.9 37.8 1025.5 1.5 SE 5.3 E 0.0 755.6
10:35 28.9 38.1 1025.4 1.7 ENE 5.6 E 0.0 761.3
10:40 29.2 37.7 1025.4 1.0 SE 3.2 SE 0.0 768.0
10:45 29.7 37.0 1025.3 1.7 ENE 6.4 E 0.0 773.9
10:50 29.8 36.5 1025.3 1.6 NE 5.3 ENE 0.0 778.1
10:55 29.8 36.9 1025.3 3.5 E 6.7 ESE 0.0 782.4
11:00 29.9 36.4 1025.3 3.5 E 8.1 ENE 0.0 786.7
11:05 29.8 36.6 1025.3 3.6 E 8.8 E 0.0 779.5
11:10 29.7 36.8 1025.3 2.9 ESE 7.1 E 0.0 782.7
11:15 29.9 36.3 1025.3 3.8 ESE 7.8 SE 0.0 798.1
11:20 30.0 36.2 1025.3 4.2 SE 8.8 SE 0.0 798.1
11:25 29.7 36.9 1025.3 5.6 ESE 10.6 E 0.0 797.5
11:30 30.0 36.4 1025.3 4.3 E 10.9 SE 0.0 801.0
11:35 30.1 36.1 1025.3 4.1 ESE 8.8 SE 0.0 801.0
11:40 29.9 36.4 1025.3 5.4 ESE 11.6 ESE 0.0 798.2
11:45 29.8 36.9 1025.2 4.3 E 11.3 ENE 0.0 794.4
11:50 30.2 36.2 1025.2 3.6 E 13.1 ESE 0.0 789.2
11:55 30.4 35.7 1025.2 7.5 ESE 15.5 E 0.0 783.3
12:00 29.8 36.7 1025.2 5.8 ESE 13.4 ENE 0.0 795.2
12:05 30.3 36.0 1025.1 5.6 E 14.8 NE 0.0 802.0
12:10 30.1 36.4 1025.1 7.1 E 15.2 E 0.0 783.8
12:15 30.4 35.9 1025.2 7.2 E 14.1 E 0.0 774.5
12:20 30.5 35.8 1025.2 6.0 E 13.4 NE 0.0 771.2
12:25 31.0 34.9 1025.1 7.8 E 15.9 ENE 0.0 779.7
12:30 30.9 34.8 1025.1 8.4 E 16.2 E 0.0 777.6
12:35 31.0 34.8 1025.0 9.1 E 20.5 E 0.0 775.9
12:40 31.1 34.7 1025.0 8.7 E 16.2 ENE 0.0 768.2
12:45 30.9 34.8 1024.9 8.6 E 20.1 ENE 0.0 765.9
12:50 30.9 34.8 1024.9 9.2 E 19.1 ESE 0.0 759.7
12:55 30.9 34.9 1024.9 7.9 E 15.2 E 0.0 751.7
13:00 30.9 34.8 1024.9 9.1 E 19.1 ENE 0.0 758.7
13:05 30.9 35.0 1024.8 6.4 E 15.5 NE 0.0 750.5
13:10 30.8 35.4 1024.8 8.4 E 16.9 E 0.0 745.3
13:15 30.9 35.5 1024.8 6.0 E 12.4 ENE 0.0 734.8
13:20 30.6 35.9 1024.8 10.0 E 20.1 E 0.0 726.6
13:25 30.5 36.3 1024.7 9.1 E 18.4 ESE 0.0 706.7
13:30 30.5 36.2 1024.7 6.8 E 16.9 ESE 0.0 695.2
13:35 30.4 36.3 1024.7 8.6 E 17.6 E 0.0 706.3
13:40 30.6 36.3 1024.7 8.5 E 17.3 ENE 0.0 700.0
13:45 30.6 35.8 1024.6 10.1 ESE 18.0 SE 0.0 689.0
13:50 30.2 36.6 1024.6 7.2 ESE 15.9 ESE 0.0 681.3
13:55 30.4 36.5 1024.7 7.4 E 15.9 E 0.0 661.3
14:00 30.4 36.3 1024.7 8.8 E 23.6 ESE 0.0 652.7
14:05 30.2 36.8 1024.6 7.9 ESE 18.4 E 0.0 643.2
14:10 30.3 36.8 1024.6 8.1 E 19.1 E 0.0 630.9
14:15 30.0 37.1 1024.5 8.7 E 15.9 E 0.0 614.4
14:20 29.7 38.0 1024.5 7.3 ESE 17.3 E 0.0 603.9
14:25 30.0 37.4 1024.5 7.4 ESE 18.0 ESE 0.0 594.6
14:30 29.9 37.6 1024.5 8.2 ESE 13.4 SE 0.0 579.9
14:35 29.8 37.8 1024.4 6.8 ESE 13.8 E 0.0 567.9
14:40 29.6 38.2 1024.4 7.2 E 16.2 ESE 0.0 554.7
14:45 29.4 38.7 1024.4 7.2 E 15.2 SE 0.0 541.4
14:50 29.1 39.3 1024.4 7.5 E 18.0 ESE 0.0 529.4
14:55 28.9 39.8 1024.5 8.0 E 17.6 ESE 0.0 514.4
15:00 28.6 40.4 1024.5 8.5 E 16.2 ENE 0.0 498.8
15:05 28.6 40.7 1024.5 8.1 E 14.1 E 0.0 483.5
15:10 28.4 41.2 1024.5 6.5 E 12.7 E 0.0 469.1
15:15 28.3 41.6 1024.5 6.3 E 13.1 ESE 0.0 455.9
Màxima 31.1 51.4 1025.5 10.1 ESE 23.6 ESE 0.0 802.0
Mínima 20 34.7 1024.3
Total 0.0